sensor_id;sensor_type;location;lat;lon;timestamp;P1;P2;P0
23240;PMS7003;11789;53.482;9.862;2023-08-12T00:00:45;12.00;12.00;9.50
23240;PMS7003;11789;53.482;9.862;2023-08-12T00:03:11;16.25;15.75;11.25
23240;PMS7003;11789;53.482;9.862;2023-08-12T00:05:36;15.75;15.50;12.00
23240;PMS7003;11789;53.482;9.862;2023-08-12T00:08:03;15.25;13.25;9.75
23240;PMS7003;11789;53.482;9.862;2023-08-12T00:10:29;18.25;15.75;11.25
23240;PMS7003;11789;53.482;9.862;2023-08-12T00:13:06;16.00;16.00;12.25
23240;PMS7003;11789;53.482;9.862;2023-08-12T00:15:32;21.00;17.25;13.25
23240;PMS7003;11789;53.482;9.862;2023-08-12T00:17:58;14.75;14.75;12.25
23240;PMS7003;11789;53.482;9.862;2023-08-12T00:20:23;15.00;15.00;12.50
23240;PMS7003;11789;53.482;9.862;2023-08-12T00:22:49;17.00;14.50;11.50
23240;PMS7003;11789;53.482;9.862;2023-08-12T00:25:15;16.25;15.00;12.50
23240;PMS7003;11789;53.482;9.862;2023-08-12T00:27:40;16.00;16.00;12.75
23240;PMS7003;11789;53.482;9.862;2023-08-12T00:30:06;19.00;17.50;12.75
23240;PMS7003;11789;53.482;9.862;2023-08-12T00:32:33;15.50;15.50;13.00
23240;PMS7003;11789;53.482;9.862;2023-08-12T00:34:58;18.50;16.75;13.00
23240;PMS7003;11789;53.482;9.862;2023-08-12T00:37:23;18.00;15.00;12.25
23240;PMS7003;11789;53.482;9.862;2023-08-12T00:39:49;15.00;13.25;10.50
23240;PMS7003;11789;53.482;9.862;2023-08-12T00:42:14;15.75;15.75;12.00
23240;PMS7003;11789;53.482;9.862;2023-08-12T00:44:40;14.00;14.00;12.25
23240;PMS7003;11789;53.482;9.862;2023-08-12T00:47:20;13.25;13.25;11.50
23240;PMS7003;11789;53.482;9.862;2023-08-12T00:49:46;14.25;12.50;10.75
23240;PMS7003;11789;53.482;9.862;2023-08-12T00:52:13;17.00;17.00;13.25
23240;PMS7003;11789;53.482;9.862;2023-08-12T00:54:40;14.50;14.50;12.75
23240;PMS7003;11789;53.482;9.862;2023-08-12T00:57:05;13.50;13.50;11.25
23240;PMS7003;11789;53.482;9.862;2023-08-12T00:59:31;20.00;16.50;12.50
23240;PMS7003;11789;53.482;9.862;2023-08-12T01:01:58;16.00;14.25;12.00
23240;PMS7003;11789;53.482;9.862;2023-08-12T01:04:23;14.25;14.25;11.25
23240;PMS7003;11789;53.482;9.862;2023-08-12T01:06:49;15.25;14.75;12.50
23240;PMS7003;11789;53.482;9.862;2023-08-12T01:09:14;16.75;16.75;13.50
23240;PMS7003;11789;53.482;9.862;2023-08-12T01:17:00;13.25;13.25;10.50
23240;PMS7003;11789;53.482;9.862;2023-08-12T01:19:36;16.75;14.25;11.25
23240;PMS7003;11789;53.482;9.862;2023-08-12T01:22:03;15.75;15.75;12.25
23240;PMS7003;11789;53.482;9.862;2023-08-12T01:24:35;17.00;16.25;12.25
23240;PMS7003;11789;53.482;9.862;2023-08-12T01:27:05;16.25;14.00;12.25
23240;PMS7003;11789;53.482;9.862;2023-08-12T01:29:32;14.25;13.00;11.25
23240;PMS7003;11789;53.482;9.862;2023-08-12T01:32:01;16.75;16.75;13.25
23240;PMS7003;11789;53.482;9.862;2023-08-12T01:34:43;15.75;15.75;12.75
23240;PMS7003;11789;53.482;9.862;2023-08-12T01:37:17;14.25;14.25;11.75
23240;PMS7003;11789;53.482;9.862;2023-08-12T01:39:54;12.25;10.75;10.00
23240;PMS7003;11789;53.482;9.862;2023-08-12T01:42:23;13.50;13.50;10.25
23240;PMS7003;11789;53.482;9.862;2023-08-12T01:44:50;14.00;14.00;11.00
23240;PMS7003;11789;53.482;9.862;2023-08-12T01:47:15;14.50;14.50;11.50
23240;PMS7003;11789;53.482;9.862;2023-08-12T01:49:41;16.75;16.25;12.50
23240;PMS7003;11789;53.482;9.862;2023-08-12T01:52:06;15.25;13.50;10.00
23240;PMS7003;11789;53.482;9.862;2023-08-12T01:54:33;12.75;12.75;10.25
23240;PMS7003;11789;53.482;9.862;2023-08-12T01:57:17;15.50;13.75;11.25
23240;PMS7003;11789;53.482;9.862;2023-08-12T01:59:43;15.50;15.50;12.50
23240;PMS7003;11789;53.482;9.862;2023-08-12T02:02:09;16.75;15.25;13.00
23240;PMS7003;11789;53.482;9.862;2023-08-12T02:04:35;17.00;14.50;12.25
23240;PMS7003;11789;53.482;9.862;2023-08-12T02:07:02;15.50;15.25;11.75
23240;PMS7003;11789;53.482;9.862;2023-08-12T02:09:27;19.50;15.25;11.75
23240;PMS7003;11789;53.482;9.862;2023-08-12T02:11:53;13.00;13.00;11.50
23240;PMS7003;11789;53.482;9.862;2023-08-12T02:14:19;19.75;16.25;12.75
23240;PMS7003;11789;53.482;9.862;2023-08-12T02:16:45;15.00;14.00;12.50
23240;PMS7003;11789;53.482;9.862;2023-08-12T02:19:10;16.00;14.75;12.25
23240;PMS7003;11789;53.482;9.862;2023-08-12T02:21:36;21.50;18.00;13.50
23240;PMS7003;11789;53.482;9.862;2023-08-12T02:24:01;18.00;15.00;12.25
23240;PMS7003;11789;53.482;9.862;2023-08-12T02:26:27;16.75;14.50;13.00
23240;PMS7003;11789;53.482;9.862;2023-08-12T02:28:52;18.00;16.75;14.00
23240;PMS7003;11789;53.482;9.862;2023-08-12T02:31:17;15.25;15.00;12.25
23240;PMS7003;11789;53.482;9.862;2023-08-12T02:33:43;18.75;17.25;12.25
23240;PMS7003;11789;53.482;9.862;2023-08-12T02:36:08;14.25;14.25;11.00
23240;PMS7003;11789;53.482;9.862;2023-08-12T02:38:34;16.25;16.25;13.00
23240;PMS7003;11789;53.482;9.862;2023-08-12T02:40:59;15.00;14.75;12.25
23240;PMS7003;11789;53.482;9.862;2023-08-12T02:43:28;14.25;14.25;12.50
23240;PMS7003;11789;53.482;9.862;2023-08-12T02:45:53;15.00;13.75;12.25
23240;PMS7003;11789;53.482;9.862;2023-08-12T02:48:19;15.50;15.50;12.25
23240;PMS7003;11789;53.482;9.862;2023-08-12T02:50:44;18.25;15.00;13.25
23240;PMS7003;11789;53.482;9.862;2023-08-12T02:53:10;16.75;15.75;13.00
23240;PMS7003;11789;53.482;9.862;2023-08-12T02:55:35;10.50;10.50;9.25
23240;PMS7003;11789;53.482;9.862;2023-08-12T02:58:02;15.50;15.50;12.00
23240;PMS7003;11789;53.482;9.862;2023-08-12T03:00:28;18.25;16.75;13.00
23240;PMS7003;11789;53.482;9.862;2023-08-12T03:02:54;20.00;17.75;13.75
23240;PMS7003;11789;53.482;9.862;2023-08-12T03:05:20;18.00;17.75;13.50
23240;PMS7003;11789;53.482;9.862;2023-08-12T03:07:47;19.75;18.25;14.00
23240;PMS7003;11789;53.482;9.862;2023-08-12T03:10:13;13.25;13.25;11.00
23240;PMS7003;11789;53.482;9.862;2023-08-12T03:12:38;16.00;15.25;12.50
23240;PMS7003;11789;53.482;9.862;2023-08-12T03:15:05;16.00;16.00;12.50
23240;PMS7003;11789;53.482;9.862;2023-08-12T03:17:32;15.75;15.75;13.25
23240;PMS7003;11789;53.482;9.862;2023-08-12T03:19:58;15.75;15.75;12.00
23240;PMS7003;11789;53.482;9.862;2023-08-12T03:22:29;15.00;15.00;12.25
23240;PMS7003;11789;53.482;9.862;2023-08-12T03:24:54;15.00;15.00;11.75
23240;PMS7003;11789;53.482;9.862;2023-08-12T03:27:20;13.75;13.75;11.25
23240;PMS7003;11789;53.482;9.862;2023-08-12T03:29:45;15.00;14.75;12.25
23240;PMS7003;11789;53.482;9.862;2023-08-12T03:32:11;15.25;15.25;13.00
23240;PMS7003;11789;53.482;9.862;2023-08-12T03:34:36;16.25;16.25;13.25
23240;PMS7003;11789;53.482;9.862;2023-08-12T03:37:03;14.50;14.50;10.75
23240;PMS7003;11789;53.482;9.862;2023-08-12T03:39:28;16.00;16.00;12.50
23240;PMS7003;11789;53.482;9.862;2023-08-12T03:41:54;14.50;14.50;12.00
23240;PMS7003;11789;53.482;9.862;2023-08-12T03:44:19;16.25;15.75;11.75
23240;PMS7003;11789;53.482;9.862;2023-08-12T03:46:45;16.75;14.00;11.75
23240;PMS7003;11789;53.482;9.862;2023-08-12T03:49:10;14.75;14.75;12.25
23240;PMS7003;11789;53.482;9.862;2023-08-12T03:51:36;18.00;17.50;14.00
23240;PMS7003;11789;53.482;9.862;2023-08-12T03:54:04;16.25;14.25;11.75
23240;PMS7003;11789;53.482;9.862;2023-08-12T03:56:31;16.00;13.50;11.00
23240;PMS7003;11789;53.482;9.862;2023-08-12T03:58:56;20.50;17.00;13.25
23240;PMS7003;11789;53.482;9.862;2023-08-12T04:01:22;16.25;14.50;12.50
23240;PMS7003;11789;53.482;9.862;2023-08-12T04:03:47;14.75;14.00;11.25
23240;PMS7003;11789;53.482;9.862;2023-08-12T04:06:13;17.50;14.75;12.00
23240;PMS7003;11789;53.482;9.862;2023-08-12T04:08:38;18.50;15.50;12.25
23240;PMS7003;11789;53.482;9.862;2023-08-12T04:11:04;16.25;16.25;11.50
23240;PMS7003;11789;53.482;9.862;2023-08-12T04:13:29;20.50;16.25;14.00
23240;PMS7003;11789;53.482;9.862;2023-08-12T04:15:55;15.50;14.25;11.50
23240;PMS7003;11789;53.482;9.862;2023-08-12T04:18:23;16.25;16.25;11.75
23240;PMS7003;11789;53.482;9.862;2023-08-12T04:20:49;14.25;12.25;10.75
23240;PMS7003;11789;53.482;9.862;2023-08-12T04:23:16;16.75;15.75;12.25
23240;PMS7003;11789;53.482;9.862;2023-08-12T04:25:46;16.75;16.00;13.00
23240;PMS7003;11789;53.482;9.862;2023-08-12T04:28:13;17.00;15.25;13.25
23240;PMS7003;11789;53.482;9.862;2023-08-12T04:30:42;17.75;17.75;15.00
23240;PMS7003;11789;53.482;9.862;2023-08-12T04:33:15;17.50;17.50;13.25
23240;PMS7003;11789;53.482;9.862;2023-08-12T04:35:40;17.75;15.75;13.00
23240;PMS7003;11789;53.482;9.862;2023-08-12T04:38:06;15.00;14.75;11.75
23240;PMS7003;11789;53.482;9.862;2023-08-12T04:40:32;18.50;18.25;14.25
23240;PMS7003;11789;53.482;9.862;2023-08-12T04:43:00;15.75;15.75;13.00
23240;PMS7003;11789;53.482;9.862;2023-08-12T04:45:26;14.50;13.25;11.00
23240;PMS7003;11789;53.482;9.862;2023-08-12T04:47:52;16.75;15.75;13.25
23240;PMS7003;11789;53.482;9.862;2023-08-12T04:50:18;21.00;17.00;12.25
23240;PMS7003;11789;53.482;9.862;2023-08-12T04:52:44;15.00;15.00;12.25
23240;PMS7003;11789;53.482;9.862;2023-08-12T04:55:11;11.50;11.50;10.25
23240;PMS7003;11789;53.482;9.862;2023-08-12T04:57:36;15.00;13.25;10.25
23240;PMS7003;11789;53.482;9.862;2023-08-12T05:00:02;16.75;16.75;13.50
23240;PMS7003;11789;53.482;9.862;2023-08-12T05:02:28;15.25;15.25;12.00
23240;PMS7003;11789;53.482;9.862;2023-08-12T05:04:54;17.50;15.25;12.75
23240;PMS7003;11789;53.482;9.862;2023-08-12T05:07:19;14.75;13.75;11.25
23240;PMS7003;11789;53.482;9.862;2023-08-12T05:09:45;15.75;15.75;12.25
23240;PMS7003;11789;53.482;9.862;2023-08-12T05:12:10;14.00;13.50;11.50
23240;PMS7003;11789;53.482;9.862;2023-08-12T05:14:37;18.50;17.00;13.75
23240;PMS7003;11789;53.482;9.862;2023-08-12T05:17:02;15.25;15.25;12.50
23240;PMS7003;11789;53.482;9.862;2023-08-12T05:19:28;17.50;16.25;13.25
23240;PMS7003;11789;53.482;9.862;2023-08-12T05:21:54;17.25;16.00;11.25
23240;PMS7003;11789;53.482;9.862;2023-08-12T05:24:20;17.25;16.75;13.75
23240;PMS7003;11789;53.482;9.862;2023-08-12T05:26:45;15.00;15.00;12.00
23240;PMS7003;11789;53.482;9.862;2023-08-12T05:29:11;19.00;17.00;13.50
23240;PMS7003;11789;53.482;9.862;2023-08-12T05:31:37;23.00;21.50;15.25
23240;PMS7003;11789;53.482;9.862;2023-08-12T05:34:02;24.25;23.00;17.25
23240;PMS7003;11789;53.482;9.862;2023-08-12T05:36:28;17.25;17.25;14.25
23240;PMS7003;11789;53.482;9.862;2023-08-12T05:38:54;14.75;14.75;12.50
23240;PMS7003;11789;53.482;9.862;2023-08-12T05:41:19;22.25;19.75;15.50
23240;PMS7003;11789;53.482;9.862;2023-08-12T05:43:45;19.75;19.75;15.50
23240;PMS7003;11789;53.482;9.862;2023-08-12T05:46:11;22.25;22.25;15.75
23240;PMS7003;11789;53.482;9.862;2023-08-12T05:48:36;24.25;22.50;16.75
23240;PMS7003;11789;53.482;9.862;2023-08-12T05:51:02;21.75;21.75;16.75
23240;PMS7003;11789;53.482;9.862;2023-08-12T05:53:27;25.25;25.25;19.25
23240;PMS7003;11789;53.482;9.862;2023-08-12T05:55:53;27.00;25.50;18.50
23240;PMS7003;11789;53.482;9.862;2023-08-12T05:58:18;27.75;26.25;19.00
23240;PMS7003;11789;53.482;9.862;2023-08-12T06:00:43;27.25;23.75;19.00
23240;PMS7003;11789;53.482;9.862;2023-08-12T06:03:11;26.50;23.50;16.25
23240;PMS7003;11789;53.482;9.862;2023-08-12T06:05:37;32.75;30.50;21.25
23240;PMS7003;11789;53.482;9.862;2023-08-12T06:08:06;29.00;28.50;21.75
23240;PMS7003;11789;53.482;9.862;2023-08-12T06:10:32;29.25;26.25;20.25
23240;PMS7003;11789;53.482;9.862;2023-08-12T06:12:58;27.25;26.00;19.50
23240;PMS7003;11789;53.482;9.862;2023-08-12T06:15:24;34.50;31.50;22.00
23240;PMS7003;11789;53.482;9.862;2023-08-12T06:20:42;35.25;32.50;21.75
23240;PMS7003;11789;53.482;9.862;2023-08-12T06:23:08;37.00;34.00;23.25
23240;PMS7003;11789;53.482;9.862;2023-08-12T06:25:33;34.75;31.50;24.25
23240;PMS7003;11789;53.482;9.862;2023-08-12T06:28:01;35.50;32.25;23.25
23240;PMS7003;11789;53.482;9.862;2023-08-12T06:30:26;37.50;32.50;23.50
23240;PMS7003;11789;53.482;9.862;2023-08-12T06:32:52;33.00;30.50;22.75
23240;PMS7003;11789;53.482;9.862;2023-08-12T06:35:17;34.25;31.50;22.50
23240;PMS7003;11789;53.482;9.862;2023-08-12T06:37:43;36.00;33.75;23.25
23240;PMS7003;11789;53.482;9.862;2023-08-12T06:40:08;37.25;34.00;23.00
23240;PMS7003;11789;53.482;9.862;2023-08-12T06:42:34;34.75;32.75;23.25
23240;PMS7003;11789;53.482;9.862;2023-08-12T06:44:59;40.50;34.50;24.25
23240;PMS7003;11789;53.482;9.862;2023-08-12T06:47:25;36.75;34.25;24.25
23240;PMS7003;11789;53.482;9.862;2023-08-12T06:49:52;41.75;35.25;25.25
23240;PMS7003;11789;53.482;9.862;2023-08-12T06:52:18;37.25;33.25;23.50
23240;PMS7003;11789;53.482;9.862;2023-08-12T06:54:44;37.00;34.50;24.25
23240;PMS7003;11789;53.482;9.862;2023-08-12T06:57:09;38.00;33.75;23.25
23240;PMS7003;11789;53.482;9.862;2023-08-12T06:59:36;39.50;35.00;24.50
23240;PMS7003;11789;53.482;9.862;2023-08-12T07:02:02;38.50;34.75;24.00
23240;PMS7003;11789;53.482;9.862;2023-08-12T07:04:28;39.25;36.25;23.50
23240;PMS7003;11789;53.482;9.862;2023-08-12T07:06:53;40.75;34.50;23.50
23240;PMS7003;11789;53.482;9.862;2023-08-12T07:09:19;38.25;34.75;24.25
23240;PMS7003;11789;53.482;9.862;2023-08-12T07:11:44;39.25;34.75;24.75
23240;PMS7003;11789;53.482;9.862;2023-08-12T07:14:10;33.75;32.50;23.75
23240;PMS7003;11789;53.482;9.862;2023-08-12T07:16:35;38.75;34.50;23.25
23240;PMS7003;11789;53.482;9.862;2023-08-12T07:21:54;42.75;35.25;25.50
23240;PMS7003;11789;53.482;9.862;2023-08-12T07:24:20;37.75;35.00;23.25
23240;PMS7003;11789;53.482;9.862;2023-08-12T07:26:45;37.75;34.00;23.75
23240;PMS7003;11789;53.482;9.862;2023-08-12T07:29:14;34.75;31.75;22.75
23240;PMS7003;11789;53.482;9.862;2023-08-12T07:31:39;39.75;36.25;24.25
23240;PMS7003;11789;53.482;9.862;2023-08-12T07:34:05;36.75;33.25;24.50
23240;PMS7003;11789;53.482;9.862;2023-08-12T07:36:31;34.50;31.25;22.75
23240;PMS7003;11789;53.482;9.862;2023-08-12T07:38:58;30.75;30.75;21.00
23240;PMS7003;11789;53.482;9.862;2023-08-12T07:41:23;33.00;31.25;22.25
23240;PMS7003;11789;53.482;9.862;2023-08-12T07:43:52;38.75;34.75;24.25
23240;PMS7003;11789;53.482;9.862;2023-08-12T07:46:18;34.75;33.00;23.25
23240;PMS7003;11789;53.482;9.862;2023-08-12T07:48:44;29.50;28.50;21.00
23240;PMS7003;11789;53.482;9.862;2023-08-12T07:51:10;33.75;32.50;23.25
23240;PMS7003;11789;53.482;9.862;2023-08-12T07:53:35;33.50;32.00;23.75
23240;PMS7003;11789;53.482;9.862;2023-08-12T07:56:01;34.00;32.25;23.25
23240;PMS7003;11789;53.482;9.862;2023-08-12T07:58:27;36.50;33.25;24.00
23240;PMS7003;11789;53.482;9.862;2023-08-12T08:00:53;34.50;32.00;23.25
23240;PMS7003;11789;53.482;9.862;2023-08-12T08:03:19;34.50;32.00;22.75
23240;PMS7003;11789;53.482;9.862;2023-08-12T08:05:44;35.75;31.50;22.25
23240;PMS7003;11789;53.482;9.862;2023-08-12T08:08:12;31.25;30.25;21.00
23240;PMS7003;11789;53.482;9.862;2023-08-12T08:10:38;25.00;24.50;18.50
23240;PMS7003;11789;53.482;9.862;2023-08-12T08:13:04;28.75;27.25;19.50
23240;PMS7003;11789;53.482;9.862;2023-08-12T08:15:29;30.50;29.75;22.50
23240;PMS7003;11789;53.482;9.862;2023-08-12T08:17:54;26.25;26.25;17.50
23240;PMS7003;11789;53.482;9.862;2023-08-12T08:20:20;31.50;29.75;20.25
23240;PMS7003;11789;53.482;9.862;2023-08-12T08:22:45;24.00;24.00;16.25
23240;PMS7003;11789;53.482;9.862;2023-08-12T08:25:12;31.00;28.25;19.50
23240;PMS7003;11789;53.482;9.862;2023-08-12T08:27:38;28.25;28.25;20.00
23240;PMS7003;11789;53.482;9.862;2023-08-12T08:30:04;31.75;27.25;18.25
23240;PMS7003;11789;53.482;9.862;2023-08-12T08:32:30;28.75;27.00;19.50
23240;PMS7003;11789;53.482;9.862;2023-08-12T08:34:55;37.25;31.50;20.50
23240;PMS7003;11789;53.482;9.862;2023-08-12T08:37:21;29.75;28.75;19.25
23240;PMS7003;11789;53.482;9.862;2023-08-12T08:39:50;30.50;27.75;19.00
23240;PMS7003;11789;53.482;9.862;2023-08-12T08:42:16;26.75;26.75;18.75
23240;PMS7003;11789;53.482;9.862;2023-08-12T08:44:45;26.00;26.00;18.75
23240;PMS7003;11789;53.482;9.862;2023-08-12T08:47:11;30.00;28.50;20.25
23240;PMS7003;11789;53.482;9.862;2023-08-12T08:49:41;22.75;20.50;16.00
23240;PMS7003;11789;53.482;9.862;2023-08-12T08:52:07;28.50;27.25;19.25
23240;PMS7003;11789;53.482;9.862;2023-08-12T08:54:33;31.50;27.75;18.00
23240;PMS7003;11789;53.482;9.862;2023-08-12T08:56:59;21.25;21.25;17.25
23240;PMS7003;11789;53.482;9.862;2023-08-12T08:59:25;21.25;21.25;16.25
23240;PMS7003;11789;53.482;9.862;2023-08-12T09:01:50;29.25;25.75;17.75
23240;PMS7003;11789;53.482;9.862;2023-08-12T09:04:18;24.00;20.00;16.25
23240;PMS7003;11789;53.482;9.862;2023-08-12T09:06:47;22.50;20.75;16.25
23240;PMS7003;11789;53.482;9.862;2023-08-12T09:09:13;22.25;19.25;13.50
23240;PMS7003;11789;53.482;9.862;2023-08-12T09:11:42;22.00;22.00;15.25
23240;PMS7003;11789;53.482;9.862;2023-08-12T09:14:09;18.75;18.25;14.00
23240;PMS7003;11789;53.482;9.862;2023-08-12T09:16:36;24.00;17.25;13.75
23240;PMS7003;11789;53.482;9.862;2023-08-12T09:19:02;20.75;19.25;12.75
23240;PMS7003;11789;53.482;9.862;2023-08-12T09:21:28;16.75;14.75;13.00
23240;PMS7003;11789;53.482;9.862;2023-08-12T09:23:53;17.75;17.25;13.75
23240;PMS7003;11789;53.482;9.862;2023-08-12T09:26:20;15.75;15.75;10.75
23240;PMS7003;11789;53.482;9.862;2023-08-12T09:31:33;19.25;17.50;13.25
23240;PMS7003;11789;53.482;9.862;2023-08-12T09:33:59;15.25;15.25;12.50
23240;PMS7003;11789;53.482;9.862;2023-08-12T09:36:31;19.50;18.25;13.00
23240;PMS7003;11789;53.482;9.862;2023-08-12T09:38:58;18.25;18.25;13.75
23240;PMS7003;11789;53.482;9.862;2023-08-12T09:41:27;18.75;17.00;13.25
23240;PMS7003;11789;53.482;9.862;2023-08-12T09:43:56;19.50;19.50;14.75
23240;PMS7003;11789;53.482;9.862;2023-08-12T09:46:24;21.50;19.00;15.25
23240;PMS7003;11789;53.482;9.862;2023-08-12T09:48:50;22.00;21.00;15.25
23240;PMS7003;11789;53.482;9.862;2023-08-12T09:51:17;18.75;18.75;15.25
23240;PMS7003;11789;53.482;9.862;2023-08-12T09:53:43;27.25;23.00;15.50
23240;PMS7003;11789;53.482;9.862;2023-08-12T09:56:11;19.50;19.50;15.00
23240;PMS7003;11789;53.482;9.862;2023-08-12T09:58:37;22.50;19.75;14.50
23240;PMS7003;11789;53.482;9.862;2023-08-12T10:01:05;24.50;22.25;14.50
23240;PMS7003;11789;53.482;9.862;2023-08-12T10:03:33;21.75;19.75;14.00
23240;PMS7003;11789;53.482;9.862;2023-08-12T10:06:02;19.00;18.50;13.25
23240;PMS7003;11789;53.482;9.862;2023-08-12T10:08:28;16.00;16.00;12.75
23240;PMS7003;11789;53.482;9.862;2023-08-12T10:10:54;19.75;19.75;14.50
23240;PMS7003;11789;53.482;9.862;2023-08-12T10:13:23;20.25;20.25;14.75
23240;PMS7003;11789;53.482;9.862;2023-08-12T10:15:49;19.75;19.75;15.25
23240;PMS7003;11789;53.482;9.862;2023-08-12T10:18:15;15.67;13.67;10.00
23240;PMS7003;11789;53.482;9.862;2023-08-12T10:20:44;15.25;13.25;10.00
23240;PMS7003;11789;53.482;9.862;2023-08-12T10:23:12;16.25;14.25;11.50
23240;PMS7003;11789;53.482;9.862;2023-08-12T10:25:41;15.25;13.75;11.00
23240;PMS7003;11789;53.482;9.862;2023-08-12T10:28:08;16.75;16.75;13.25
23240;PMS7003;11789;53.482;9.862;2023-08-12T10:30:34;14.00;12.33;9.67
23240;PMS7003;11789;53.482;9.862;2023-08-12T10:33:00;15.00;13.67;12.00
23240;PMS7003;11789;53.482;9.862;2023-08-12T10:35:45;12.67;12.00;10.00
23240;PMS7003;11789;53.482;9.862;2023-08-12T10:38:19;14.33;14.33;11.00
23240;PMS7003;11789;53.482;9.862;2023-08-12T10:40:45;11.00;11.00;10.00
23240;PMS7003;11789;53.482;9.862;2023-08-12T10:43:11;13.67;13.67;11.00
23240;PMS7003;11789;53.482;9.862;2023-08-12T10:45:44;14.67;14.67;11.00
23240;PMS7003;11789;53.482;9.862;2023-08-12T10:48:17;13.00;13.00;10.67
23240;PMS7003;11789;53.482;9.862;2023-08-12T10:50:51;15.00;14.00;11.25
23240;PMS7003;11789;53.482;9.862;2023-08-12T10:53:26;15.67;14.00;10.33
23240;PMS7003;11789;53.482;9.862;2023-08-12T10:56:04;13.33;13.33;10.67
23240;PMS7003;11789;53.482;9.862;2023-08-12T11:00:59;15.00;12.67;11.00
23240;PMS7003;11789;53.482;9.862;2023-08-12T11:03:25;12.67;12.67;9.67
23240;PMS7003;11789;53.482;9.862;2023-08-12T11:05:52;13.00;12.00;9.00
23240;PMS7003;11789;53.482;9.862;2023-08-12T11:08:25;13.67;13.67;10.00
23240;PMS7003;11789;53.482;9.862;2023-08-12T11:10:53;15.00;13.33;10.00
23240;PMS7003;11789;53.482;9.862;2023-08-12T11:13:20;13.00;12.00;10.00
23240;PMS7003;11789;53.482;9.862;2023-08-12T11:15:47;17.33;15.67;11.00
23240;PMS7003;11789;53.482;9.862;2023-08-12T11:18:14;12.00;12.00;9.00
23240;PMS7003;11789;53.482;9.862;2023-08-12T11:20:44;15.67;14.33;10.67
23240;PMS7003;11789;53.482;9.862;2023-08-12T11:23:11;13.33;13.33;9.33
23240;PMS7003;11789;53.482;9.862;2023-08-12T11:25:38;12.33;11.00;9.00
23240;PMS7003;11789;53.482;9.862;2023-08-12T11:28:05;14.33;13.00;10.00
23240;PMS7003;11789;53.482;9.862;2023-08-12T11:30:31;13.33;13.33;9.33
23240;PMS7003;11789;53.482;9.862;2023-08-12T11:32:57;13.67;13.67;10.00
23240;PMS7003;11789;53.482;9.862;2023-08-12T11:35:23;12.00;12.00;10.00
23240;PMS7003;11789;53.482;9.862;2023-08-12T11:37:51;12.67;12.67;9.33
23240;PMS7003;11789;53.482;9.862;2023-08-12T11:40:19;13.67;13.67;10.00
23240;PMS7003;11789;53.482;9.862;2023-08-12T11:42:46;12.67;10.33;9.00
23240;PMS7003;11789;53.482;9.862;2023-08-12T11:45:13;11.67;11.67;8.67
23240;PMS7003;11789;53.482;9.862;2023-08-12T11:47:41;13.33;13.33;9.33
23240;PMS7003;11789;53.482;9.862;2023-08-12T11:50:08;14.67;12.67;11.00
23240;PMS7003;11789;53.482;9.862;2023-08-12T11:52:35;13.33;11.67;8.33
23240;PMS7003;11789;53.482;9.862;2023-08-12T11:55:02;14.67;12.67;11.00
23240;PMS7003;11789;53.482;9.862;2023-08-12T11:57:28;13.33;13.33;11.67
23240;PMS7003;11789;53.482;9.862;2023-08-12T12:00:00;14.67;12.67;10.67
23240;PMS7003;11789;53.482;9.862;2023-08-12T12:02:30;14.00;14.00;10.00
23240;PMS7003;11789;53.482;9.862;2023-08-12T12:04:55;15.25;13.25;9.50
23240;PMS7003;11789;53.482;9.862;2023-08-12T12:07:21;15.33;15.33;12.00
23240;PMS7003;11789;53.482;9.862;2023-08-12T12:09:54;14.00;14.00;11.67
23240;PMS7003;11789;53.482;9.862;2023-08-12T12:12:23;16.33;16.33;11.33
23240;PMS7003;11789;53.482;9.862;2023-08-12T12:14:52;17.00;16.00;12.25
23240;PMS7003;11789;53.482;9.862;2023-08-12T12:17:22;16.00;16.00;11.00
23240;PMS7003;11789;53.482;9.862;2023-08-12T12:19:51;15.50;15.50;12.25
23240;PMS7003;11789;53.482;9.862;2023-08-12T12:22:20;15.00;15.00;11.00
23240;PMS7003;11789;53.482;9.862;2023-08-12T12:24:45;16.67;15.33;12.67
23240;PMS7003;11789;53.482;9.862;2023-08-12T12:27:15;20.33;18.67;13.33
23240;PMS7003;11789;53.482;9.862;2023-08-12T12:29:43;16.00;16.00;11.00
23240;PMS7003;11789;53.482;9.862;2023-08-12T12:32:09;17.33;17.33;12.00
23240;PMS7003;11789;53.482;9.862;2023-08-12T12:34:35;16.33;16.33;13.33
23240;PMS7003;11789;53.482;9.862;2023-08-12T12:37:01;15.67;15.67;11.33
23240;PMS7003;11789;53.482;9.862;2023-08-12T12:39:26;13.00;13.00;10.33
23240;PMS7003;11789;53.482;9.862;2023-08-12T12:41:52;15.00;14.00;11.00
23240;PMS7003;11789;53.482;9.862;2023-08-12T12:44:17;16.75;16.75;13.00
23240;PMS7003;11789;53.482;9.862;2023-08-12T12:46:43;19.00;17.75;14.25
23240;PMS7003;11789;53.482;9.862;2023-08-12T12:49:08;17.00;16.33;12.67
23240;PMS7003;11789;53.482;9.862;2023-08-12T12:51:34;14.33;14.33;12.33
23240;PMS7003;11789;53.482;9.862;2023-08-12T12:53:59;15.50;15.50;12.00
23240;PMS7003;11789;53.482;9.862;2023-08-12T12:56:25;15.75;15.75;12.50
23240;PMS7003;11789;53.482;9.862;2023-08-12T12:58:50;16.00;15.25;12.25
23240;PMS7003;11789;53.482;9.862;2023-08-12T13:01:17;16.00;16.00;12.33
23240;PMS7003;11789;53.482;9.862;2023-08-12T13:03:43;17.50;17.50;13.00
23240;PMS7003;11789;53.482;9.862;2023-08-12T13:06:08;14.00;14.00;10.33
23240;PMS7003;11789;53.482;9.862;2023-08-12T13:08:33;17.00;16.25;13.50
23240;PMS7003;11789;53.482;9.862;2023-08-12T13:10:59;19.75;19.00;15.00
23240;PMS7003;11789;53.482;9.862;2023-08-12T13:13:24;20.50;18.75;13.25
23240;PMS7003;11789;53.482;9.862;2023-08-12T13:15:50;15.25;15.25;13.50
23240;PMS7003;11789;53.482;9.862;2023-08-12T13:18:16;21.50;18.50;14.50
23240;PMS7003;11789;53.482;9.862;2023-08-12T13:20:41;20.75;19.25;14.50
23240;PMS7003;11789;53.482;9.862;2023-08-12T13:23:07;25.00;22.50;16.50
23240;PMS7003;11789;53.482;9.862;2023-08-12T13:25:33;18.50;18.50;15.25
23240;PMS7003;11789;53.482;9.862;2023-08-12T13:28:02;23.75;23.50;17.25
23240;PMS7003;11789;53.482;9.862;2023-08-12T13:30:28;21.50;21.50;15.75
23240;PMS7003;11789;53.482;9.862;2023-08-12T13:32:54;24.50;22.25;17.25
23240;PMS7003;11789;53.482;9.862;2023-08-12T13:35:21;29.50;23.00;17.00
23240;PMS7003;11789;53.482;9.862;2023-08-12T13:37:46;22.50;22.50;16.75
23240;PMS7003;11789;53.482;9.862;2023-08-12T13:40:12;22.75;19.75;16.25
23240;PMS7003;11789;53.482;9.862;2023-08-12T13:42:39;24.00;24.00;17.00
23240;PMS7003;11789;53.482;9.862;2023-08-12T13:45:05;27.50;23.00;17.25
23240;PMS7003;11789;53.482;9.862;2023-08-12T13:47:31;24.00;22.00;16.25
23240;PMS7003;11789;53.482;9.862;2023-08-12T13:49:58;25.75;25.00;17.25
23240;PMS7003;11789;53.482;9.862;2023-08-12T13:52:24;19.00;19.00;15.00
23240;PMS7003;11789;53.482;9.862;2023-08-12T13:54:49;19.50;19.50;15.25
23240;PMS7003;11789;53.482;9.862;2023-08-12T13:57:14;22.50;22.50;16.50
23240;PMS7003;11789;53.482;9.862;2023-08-12T13:59:40;21.75;18.75;14.50